createdAt,value
2023-03-22T00:00:07.226Z,6.22
2023-03-22T00:02:36.973Z,6.15
2023-03-22T00:05:05.454Z,5.07
2023-03-22T00:07:33.767Z,6.93
2023-03-22T00:10:02.308Z,8.38
2023-03-22T00:12:30.651Z,5.07
2023-03-22T00:15:00.116Z,6.07
2023-03-22T00:17:28.512Z,5.45
2023-03-22T00:19:58.384Z,11.23
2023-03-22T00:22:27.259Z,5.38
2023-03-22T00:24:55.583Z,6.45
2023-03-22T00:27:23.895Z,5.78
2023-03-22T00:29:53.390Z,6.30
2023-03-22T00:32:21.709Z,6.80
2023-03-22T00:34:50.099Z,7.80
2023-03-22T00:37:19.732Z,7.55
2023-03-22T00:39:48.053Z,11.77
2023-03-22T00:42:16.403Z,9.93
2023-03-22T00:44:44.822Z,11.10
2023-03-22T00:47:13.327Z,9.15
2023-03-22T00:49:41.773Z,7.45
2023-03-22T00:52:10.093Z,7.15
2023-03-22T00:54:39.868Z,6.72
2023-03-22T00:57:08.580Z,6.80
2023-03-22T00:59:38.617Z,6.60
2023-03-22T01:02:07.144Z,6.28
2023-03-22T01:04:35.779Z,5.97
2023-03-22T01:07:07.719Z,7.28
2023-03-22T01:09:36.151Z,7.43
2023-03-22T01:12:05.944Z,5.75
2023-03-22T01:14:34.330Z,6.10
2023-03-22T01:17:02.712Z,6.65
2023-03-22T01:19:31.203Z,6.90
2023-03-22T01:21:59.521Z,6.78
2023-03-22T01:24:27.879Z,7.40
2023-03-22T01:26:56.330Z,8.73
2023-03-22T01:29:26.029Z,7.40
2023-03-22T01:31:54.562Z,7.82
2023-03-22T01:34:23.449Z,6.63
2023-03-22T01:36:51.764Z,6.45
2023-03-22T01:39:20.102Z,6.90
2023-03-22T01:41:48.505Z,6.55
2023-03-22T01:44:17.585Z,6.80
2023-03-22T01:46:47.977Z,9.48
2023-03-22T01:49:17.862Z,10.10
2023-03-22T01:51:48.403Z,11.95
2023-03-22T01:54:18.812Z,9.68
2023-03-22T01:56:47.424Z,8.65
2023-03-22T01:59:16.816Z,8.05
2023-03-22T02:01:46.967Z,7.88
2023-03-22T02:04:19.999Z,8.15
2023-03-22T02:06:49.087Z,8.37
2023-03-22T02:09:21.966Z,11.20
2023-03-22T02:11:53.384Z,11.73
2023-03-22T02:14:30.761Z,11.60
2023-03-22T02:17:03.128Z,12.10
2023-03-22T02:19:49.420Z,12.75
2023-03-22T02:22:25.888Z,15.88
2023-03-22T02:24:59.839Z,12.95
2023-03-22T02:27:31.721Z,13.23
2023-03-22T02:30:11.578Z,10.77
2023-03-22T02:33:05.236Z,9.55
2023-03-22T02:35:38.962Z,10.13
2023-03-22T02:38:16.718Z,11.05
2023-03-22T02:40:49.401Z,8.68
2023-03-22T02:43:20.653Z,9.75
2023-03-22T02:45:50.920Z,11.13
2023-03-22T02:48:21.783Z,10.02
2023-03-22T02:50:54.284Z,9.75
2023-03-22T02:53:24.198Z,11.05
2023-03-22T02:55:57.093Z,9.88
2023-03-22T02:58:29.239Z,8.57
2023-03-22T03:00:59.511Z,9.85
2023-03-22T03:03:29.369Z,11.23
2023-03-22T03:05:59.872Z,9.98
2023-03-22T03:08:29.154Z,11.88
2023-03-22T03:10:58.915Z,10.25
2023-03-22T03:13:27.200Z,10.52
2023-03-22T03:15:59.221Z,9.95
2023-03-22T03:18:34.896Z,9.57
2023-03-22T03:21:04.845Z,10.65
2023-03-22T03:23:39.006Z,10.18
2023-03-22T03:26:16.584Z,10.48
2023-03-22T03:28:49.776Z,8.98
2023-03-22T03:31:23.318Z,11.27
2023-03-22T03:33:57.020Z,11.45
2023-03-22T03:36:26.561Z,11.40
2023-03-22T03:38:56.460Z,12.43
2023-03-22T03:41:27.849Z,12.75
2023-03-22T03:43:58.248Z,11.10
2023-03-22T03:46:26.789Z,11.48
2023-03-22T03:48:57.473Z,10.23
2023-03-22T03:51:26.050Z,12.50
2023-03-22T03:53:54.404Z,11.48
2023-03-22T03:56:22.788Z,11.90
2023-03-22T03:58:52.407Z,11.05
2023-03-22T04:01:21.486Z,13.07
2023-03-22T04:03:50.827Z,12.38
2023-03-22T04:06:19.261Z,13.05
2023-03-22T04:08:53.406Z,11.57
2023-03-22T04:11:21.794Z,11.18
2023-03-22T04:13:50.296Z,13.15
2023-03-22T04:16:19.966Z,10.70
2023-03-22T04:18:48.374Z,12.70
2023-03-22T04:21:16.712Z,12.55
2023-03-22T04:23:46.674Z,13.40
2023-03-22T04:26:15.410Z,13.65
2023-03-22T04:28:43.693Z,14.38
2023-03-22T04:31:12.130Z,12.75
2023-03-22T04:33:46.823Z,12.75
2023-03-22T04:36:17.485Z,14.05
2023-03-22T04:38:45.987Z,14.48
2023-03-22T04:41:14.291Z,12.15
2023-03-22T04:43:42.590Z,15.85
2023-03-22T04:46:12.630Z,11.48
2023-03-22T04:48:43.282Z,14.25
2023-03-22T04:51:12.475Z,12.10
2023-03-22T04:53:40.859Z,12.95
2023-03-22T04:56:10.569Z,14.63
2023-03-22T04:58:39.986Z,13.07
2023-03-22T05:01:09.213Z,13.00
2023-03-22T05:03:37.549Z,12.65
2023-03-22T05:06:08.950Z,13.50
2023-03-22T05:08:37.972Z,11.77
2023-03-22T05:11:07.931Z,10.85
2023-03-22T05:13:37.383Z,13.82
2023-03-22T05:16:06.412Z,13.00
2023-03-22T05:18:34.832Z,13.55
2023-03-22T05:21:06.805Z,13.77
2023-03-22T05:23:36.639Z,11.95
2023-03-22T05:26:04.957Z,11.50
2023-03-22T05:28:33.288Z,13.13
2023-03-22T05:31:01.878Z,12.63
2023-03-22T05:33:30.466Z,16.35
2023-03-22T05:35:58.813Z,16.60
2023-03-22T05:38:27.428Z,13.63
2023-03-22T05:40:57.103Z,13.60
2023-03-22T05:43:25.649Z,12.43
2023-03-22T05:45:53.974Z,14.45
2023-03-22T05:48:22.294Z,12.65
2023-03-22T05:50:50.667Z,12.35
2023-03-22T05:53:19.064Z,13.50
2023-03-22T05:55:47.362Z,14.10
2023-03-22T05:58:19.104Z,12.25
2023-03-22T06:00:49.956Z,13.05
2023-03-22T06:03:18.478Z,12.13
2023-03-22T06:05:50.743Z,12.80
2023-03-22T06:08:30.553Z,11.80
2023-03-22T06:10:59.270Z,11.07
2023-03-22T06:13:28.945Z,11.43
2023-03-22T06:15:57.344Z,12.60
2023-03-22T06:18:25.675Z,13.30
2023-03-22T06:20:54.113Z,11.70
2023-03-22T06:23:22.496Z,10.95
2023-03-22T06:25:50.828Z,11.05
2023-03-22T06:28:19.100Z,11.20
2023-03-22T06:30:48.751Z,10.73
2023-03-22T06:33:17.126Z,14.75
2023-03-22T06:35:45.416Z,11.90
2023-03-22T06:38:13.720Z,12.02
2023-03-22T06:40:43.664Z,10.95
2023-03-22T06:43:14.947Z,11.77
2023-03-22T06:45:43.325Z,12.90
2023-03-22T06:48:13.029Z,11.07
2023-03-22T06:50:44.175Z,12.88
2023-03-22T06:53:12.631Z,11.48
2023-03-22T06:55:40.937Z,11.18
2023-03-22T06:58:09.554Z,10.52
2023-03-22T07:00:38.972Z,10.45
2023-03-22T07:03:07.419Z,10.82
2023-03-22T07:05:37.001Z,11.57
2023-03-22T07:08:05.280Z,10.68
2023-03-22T07:10:33.562Z,11.23
2023-03-22T07:13:04.111Z,12.45
2023-03-22T07:15:35.573Z,13.00
2023-03-22T07:18:03.869Z,10.20
2023-03-22T07:20:34.031Z,10.27
2023-03-22T07:23:03.839Z,10.70
2023-03-22T07:25:32.101Z,11.68
2023-03-22T07:28:01.270Z,10.63
2023-03-22T07:30:29.577Z,14.25
2023-03-22T07:32:57.840Z,11.02
2023-03-22T07:35:27.034Z,11.38
2023-03-22T07:37:55.361Z,12.25
2023-03-22T07:40:25.472Z,10.50
2023-03-22T07:42:55.773Z,11.48
2023-03-22T07:45:24.611Z,9.27
2023-03-22T07:47:52.997Z,12.10
2023-03-22T07:50:21.278Z,8.48
2023-03-22T07:52:49.648Z,8.23
2023-03-22T07:55:17.880Z,9.82
2023-03-22T07:57:47.590Z,8.32
2023-03-22T08:00:17.276Z,10.40
2023-03-22T08:02:46.298Z,7.75
2023-03-22T08:05:14.541Z,8.82
2023-03-22T08:07:43.153Z,8.93
2023-03-22T08:10:11.678Z,10.00
2023-03-22T08:12:39.932Z,7.85
2023-03-22T08:15:10.706Z,7.72
2023-03-22T08:17:38.991Z,6.32
2023-03-22T08:20:08.689Z,7.03
2023-03-22T08:22:37.268Z,6.30
2023-03-22T08:25:05.718Z,8.82
2023-03-22T08:27:33.992Z,6.90
2023-03-22T08:30:02.668Z,5.43
2023-03-22T08:32:32.292Z,6.65
2023-03-22T08:35:00.601Z,6.88
2023-03-22T08:37:28.960Z,5.70
2023-03-22T08:39:57.366Z,6.60
2023-03-22T08:42:25.614Z,6.68
2023-03-22T08:44:53.871Z,7.20
2023-03-22T08:47:22.220Z,4.70
2023-03-22T08:49:51.849Z,4.10
2023-03-22T08:52:20.400Z,6.38
2023-03-22T08:54:48.938Z,5.07
2023-03-22T08:57:17.196Z,4.20
2023-03-22T08:59:45.534Z,4.18
2023-03-22T09:02:13.968Z,5.38
2023-03-22T09:04:42.284Z,4.95
2023-03-22T09:07:11.908Z,3.80
2023-03-22T09:09:40.190Z,7.55
2023-03-22T09:12:08.717Z,4.75
2023-03-22T09:14:37.454Z,4.88
2023-03-22T09:17:06.189Z,5.63
2023-03-22T09:19:35.297Z,4.15
2023-03-22T09:22:04.175Z,6.78
2023-03-22T09:24:33.755Z,4.63
2023-03-22T09:27:02.028Z,3.15
2023-03-22T09:29:30.319Z,4.78
2023-03-22T09:31:58.563Z,4.15
2023-03-22T09:34:27.119Z,3.22
2023-03-22T09:36:57.450Z,2.45
2023-03-22T09:39:28.733Z,3.35
2023-03-22T09:42:01.143Z,3.38
2023-03-22T09:44:32.275Z,3.35
2023-03-22T09:47:02.177Z,3.30
2023-03-22T09:49:38.442Z,2.28
2023-03-22T09:52:13.797Z,2.90
2023-03-22T09:54:42.667Z,3.92
2023-03-22T09:57:16.867Z,1.80
2023-03-22T09:59:48.906Z,3.33
2023-03-22T10:02:26.431Z,4.45
2023-03-22T10:04:59.818Z,2.40
2023-03-22T10:07:30.130Z,4.88
2023-03-22T10:10:03.436Z,1.98
2023-03-22T10:12:36.211Z,3.03
2023-03-22T10:15:07.434Z,3.08
2023-03-22T10:17:37.157Z,3.63
2023-03-22T10:20:08.339Z,1.73
2023-03-22T10:22:38.101Z,3.67
2023-03-22T10:25:07.842Z,1.63
2023-03-22T10:27:39.719Z,2.00
2023-03-22T10:30:09.979Z,3.22
2023-03-22T10:32:56.422Z,2.55
2023-03-22T10:35:25.703Z,3.60
2023-03-22T10:37:54.525Z,2.47
2023-03-22T10:40:26.210Z,2.83
2023-03-22T10:42:56.651Z,1.75
2023-03-22T10:45:25.944Z,3.10
2023-03-22T10:48:00.049Z,1.98
2023-03-22T10:50:30.903Z,2.78
2023-03-22T10:53:03.144Z,1.88
2023-03-22T10:55:31.445Z,2.65
2023-03-22T10:58:14.194Z,2.40
2023-03-22T11:00:45.623Z,3.70
2023-03-22T11:03:24.707Z,3.28
2023-03-22T11:05:59.857Z,3.33
2023-03-22T11:08:28.195Z,2.25
2023-03-22T11:11:00.296Z,3.58
2023-03-22T11:13:30.599Z,3.55
2023-03-22T11:16:04.291Z,3.00
2023-03-22T11:21:02.359Z,1.88
2023-03-22T11:23:33.146Z,4.30
2023-03-22T11:26:02.502Z,3.22
2023-03-22T11:28:36.101Z,2.55
2023-03-22T11:31:06.689Z,3.03
2023-03-22T11:33:35.159Z,3.90
2023-03-22T11:36:04.422Z,3.38
2023-03-22T11:38:37.003Z,2.17
2023-03-22T11:41:06.129Z,2.35
2023-03-22T11:43:36.995Z,3.70
2023-03-22T11:46:06.164Z,2.40
2023-03-22T11:48:34.793Z,3.00
2023-03-22T11:51:07.508Z,2.25
2023-03-22T11:53:37.051Z,2.53
2023-03-22T11:56:07.497Z,2.47
2023-03-22T11:58:49.683Z,3.55
2023-03-22T12:01:21.247Z,3.63
2023-03-22T12:03:52.560Z,4.68
2023-03-22T12:06:22.748Z,2.33
2023-03-22T12:08:53.022Z,3.28
2023-03-22T12:11:26.681Z,3.17
2023-03-22T12:16:26.586Z,2.60
2023-03-22T12:19:03.631Z,2.47
2023-03-22T12:21:32.263Z,2.40
2023-03-22T12:24:05.274Z,2.35
2023-03-22T12:26:35.173Z,3.20
2023-03-22T12:29:05.740Z,2.38
2023-03-22T12:31:38.190Z,2.88
2023-03-22T12:34:08.153Z,1.73
2023-03-22T12:36:39.145Z,2.30
2023-03-22T12:39:08.945Z,3.20
2023-03-22T12:41:38.885Z,2.05
2023-03-22T12:44:14.644Z,3.10
2023-03-22T12:46:49.252Z,1.88
2023-03-22T12:49:22.724Z,2.20
2023-03-22T12:51:52.083Z,2.00
2023-03-22T12:54:21.189Z,2.10
2023-03-22T12:56:50.011Z,3.03
2023-03-22T12:59:19.646Z,2.40
2023-03-22T13:01:53.148Z,2.90
2023-03-22T13:04:29.090Z,1.92
2023-03-22T13:06:58.311Z,1.67
2023-03-22T13:09:40.616Z,2.30
2023-03-22T13:12:28.937Z,1.88
2023-03-22T13:15:00.352Z,4.50
2023-03-22T13:17:40.994Z,2.22
2023-03-22T13:20:25.677Z,1.67
2023-03-22T13:23:01.453Z,1.85
2023-03-22T13:25:32.797Z,4.18
2023-03-22T13:28:03.304Z,1.17
2023-03-22T13:30:36.477Z,1.27
2023-03-22T13:33:16.050Z,1.92
2023-03-22T13:35:46.576Z,2.10
2023-03-22T13:38:21.854Z,2.13
2023-03-22T13:41:07.409Z,2.63
2023-03-22T13:43:36.950Z,1.55
2023-03-22T13:46:13.960Z,1.48
2023-03-22T13:48:45.642Z,1.42
2023-03-22T13:51:16.198Z,2.08
2023-03-22T13:53:49.930Z,2.70
2023-03-22T13:56:29.496Z,1.33
2023-03-22T13:58:58.934Z,1.75
2023-03-22T14:01:30.089Z,1.23
2023-03-22T14:04:02.296Z,1.30
2023-03-22T14:06:33.725Z,1.95
2023-03-22T14:09:04.682Z,1.40
2023-03-22T14:11:40.552Z,1.80
2023-03-22T14:14:13.122Z,1.65
2023-03-22T14:16:43.114Z,1.50
2023-03-22T14:19:18.274Z,1.23
